createdAt,value
2023-01-03T07:54:12.760Z,1.70
2023-01-03T07:57:32.207Z,1.60
2023-01-03T07:58:34.535Z,1.83
2023-01-03T08:01:44.978Z,1.50
2023-01-03T08:02:46.676Z,1.60
2023-01-03T08:05:44.136Z,4.60
2023-01-03T08:06:45.538Z,4.10
2023-01-03T08:07:51.154Z,5.40
2023-01-03T08:09:11.969Z,6.25
2023-01-03T08:12:32.426Z,4.85
2023-01-03T09:15:01.989Z,6.40
2023-01-03T09:17:15.556Z,5.50
2023-01-03T09:18:17.061Z,5.85
2023-01-03T09:19:18.434Z,5.70
2023-01-03T09:20:19.866Z,5.50
2023-01-03T09:21:21.226Z,6.00
2023-01-03T09:22:22.683Z,11.95
2023-01-03T09:23:24.015Z,8.07
2023-01-03T09:24:25.381Z,5.72
2023-01-03T09:25:29.275Z,6.00
2023-01-03T09:26:34.672Z,6.13
2023-01-03T09:27:37.154Z,5.80
2023-01-03T09:28:38.775Z,6.40
2023-01-03T09:29:40.205Z,6.30
2023-01-03T09:30:41.583Z,7.15
2023-01-03T09:31:45.659Z,7.05
2023-01-03T09:32:50.772Z,6.13
2023-01-03T09:33:52.292Z,5.57
2023-01-03T09:34:53.691Z,5.38
2023-01-03T09:35:55.578Z,5.90
2023-01-03T09:36:57.023Z,5.07
2023-01-03T09:37:58.524Z,5.53
2023-01-03T09:39:00.316Z,6.28
2023-01-03T09:40:01.854Z,7.20
2023-01-03T09:41:06.459Z,7.50
2023-01-03T09:42:35.104Z,6.70
2023-01-03T09:43:43.576Z,6.95
2023-01-03T09:44:46.667Z,7.00
2023-01-03T09:45:55.214Z,6.85
2023-01-03T09:46:56.776Z,7.20
2023-01-03T09:48:00.420Z,6.13
2023-01-03T09:49:05.773Z,6.50
2023-01-03T09:50:50.724Z,6.45
2023-01-03T09:52:04.126Z,6.25
2023-01-03T09:53:24.999Z,6.57
2023-01-03T09:54:49.958Z,6.32
2023-01-03T09:56:14.007Z,5.75
2023-01-03T09:57:44.054Z,6.25
2023-01-03T09:59:17.612Z,5.90
2023-01-03T10:00:56.923Z,6.20
2023-01-03T10:02:35.441Z,6.25
2023-01-03T10:03:54.831Z,6.20
2023-01-03T10:05:11.788Z,6.40
2023-01-03T10:06:21.554Z,6.38
2023-01-03T10:07:28.846Z,5.00
2023-01-03T10:08:38.927Z,6.05
2023-01-03T10:09:59.166Z,6.18
2023-01-03T10:11:09.019Z,6.00
2023-01-03T10:12:25.312Z,5.88
2023-01-03T10:13:41.959Z,6.57
2023-01-03T10:15:10.618Z,6.25
2023-01-03T10:16:35.803Z,6.28
2023-01-03T10:17:58.318Z,5.68
2023-01-03T10:19:10.262Z,6.18
2023-01-03T10:20:40.711Z,6.13
2023-01-03T10:22:00.843Z,5.85
2023-01-03T10:23:05.513Z,5.95
2023-01-03T10:24:30.275Z,5.63
2023-01-03T10:25:31.817Z,6.40
2023-01-03T10:26:33.389Z,6.32
2023-01-03T10:27:38.233Z,7.38
2023-01-03T10:28:44.189Z,7.10
2023-01-03T10:29:47.769Z,7.13
2023-01-03T10:31:07.772Z,6.00
2023-01-03T10:32:18.365Z,5.55
2023-01-03T10:33:31.602Z,4.68
2023-01-03T10:34:32.940Z,4.30
2023-01-03T10:35:36.318Z,3.97
2023-01-03T10:36:37.670Z,5.20
2023-01-03T10:37:41.101Z,4.05
2023-01-03T10:38:51.572Z,3.00
2023-01-03T10:40:03.156Z,2.08
2023-01-03T10:41:14.305Z,3.20
2023-01-03T10:42:18.981Z,2.60
2023-01-03T10:43:39.395Z,4.00
2023-01-03T10:44:57.047Z,3.40
2023-01-03T10:46:02.553Z,3.67
2023-01-03T10:47:16.307Z,22.52
2023-01-03T10:48:18.026Z,8.90
2023-01-03T10:49:28.258Z,3.30
2023-01-03T10:50:37.662Z,2.92
2023-01-03T10:51:55.471Z,4.00
2023-01-03T10:53:06.513Z,5.07
2023-01-03T10:54:12.434Z,4.78
2023-01-03T10:55:16.969Z,4.47
2023-01-03T10:56:20.117Z,3.67
2023-01-03T10:57:46.205Z,3.45
2023-01-03T10:58:47.747Z,4.00
2023-01-03T10:59:50.171Z,3.20
2023-01-03T11:01:12.211Z,3.72
2023-01-03T11:02:18.567Z,5.00
2023-01-03T11:03:26.590Z,2.15
2023-01-03T11:04:30.005Z,2.55
2023-01-03T11:05:31.464Z,1.80
2023-01-03T11:06:33.791Z,1.80
2023-01-03T11:07:43.136Z,2.10
2023-01-03T11:08:57.126Z,1.92
2023-01-03T11:09:58.963Z,1.80
2023-01-03T11:11:01.196Z,1.90
2023-01-03T11:12:06.062Z,1.80
2023-01-03T11:13:38.984Z,1.48
2023-01-03T11:14:49.908Z,1.92
2023-01-03T11:16:00.191Z,1.55
2023-01-03T11:17:04.270Z,1.70
2023-01-03T11:18:17.088Z,1.30
2023-01-03T11:19:18.859Z,1.70
2023-01-03T11:20:21.505Z,1.58
2023-01-03T11:21:43.409Z,1.27
2023-01-03T11:22:50.160Z,1.20
2023-01-03T11:24:15.724Z,1.27
2023-01-03T11:25:28.523Z,1.40
2023-01-03T11:26:45.344Z,1.08
2023-01-03T11:28:03.774Z,1.10
2023-01-03T11:29:22.375Z,1.35
2023-01-03T11:30:46.525Z,1.15
2023-01-03T11:32:03.109Z,1.13
2023-01-03T11:33:36.741Z,1.08
2023-01-03T11:35:23.309Z,1.88
2023-01-03T11:36:39.510Z,3.63
2023-01-03T11:38:28.811Z,1.30
2023-01-03T11:40:11.502Z,1.27
2023-01-03T11:41:37.163Z,1.63
2023-01-03T11:42:51.495Z,1.77
2023-01-03T11:43:59.551Z,1.55
2023-01-03T11:45:28.957Z,1.27
2023-01-03T11:46:53.334Z,1.35
2023-01-03T11:48:16.555Z,1.20
2023-01-03T11:49:27.446Z,1.23
2023-01-03T11:50:53.594Z,1.33
2023-01-03T11:52:16.850Z,1.10
2023-01-03T11:53:55.668Z,1.10
2023-01-03T11:55:39.973Z,0.80
2023-01-03T11:56:44.571Z,0.90
2023-01-03T11:57:57.997Z,0.80
2023-01-03T11:59:45.032Z,0.90
2023-01-03T12:01:04.402Z,0.98
2023-01-03T12:02:37.021Z,0.80
2023-01-03T12:04:10.791Z,1.02
2023-01-03T12:05:27.371Z,1.00
2023-01-03T12:06:38.775Z,0.70
2023-01-03T12:08:00.763Z,0.80
2023-01-03T12:09:13.472Z,0.80
2023-01-03T12:10:23.883Z,0.80
2023-01-03T12:11:44.124Z,1.13
2023-01-03T12:13:14.201Z,0.90
2023-01-03T12:14:28.293Z,0.88
2023-01-03T12:15:37.054Z,1.00
2023-01-03T12:17:01.762Z,1.27
2023-01-03T12:18:21.858Z,1.10
2023-01-03T12:19:38.028Z,0.95
2023-01-03T12:20:45.395Z,1.02
2023-01-03T12:21:58.691Z,14.02
2023-01-03T12:23:06.159Z,0.90
2023-01-03T12:24:19.097Z,0.93
2023-01-03T12:25:32.014Z,0.90
2023-01-03T12:26:36.128Z,0.80
2023-01-03T12:27:54.373Z,1.08
2023-01-03T12:29:18.241Z,0.85
2023-01-03T12:30:22.675Z,0.80
2023-01-03T12:31:32.207Z,1.65
2023-01-03T12:32:51.974Z,1.20
2023-01-03T12:34:02.665Z,1.05
2023-01-03T12:35:28.889Z,0.90
2023-01-03T12:36:56.677Z,0.80
2023-01-03T12:37:59.287Z,0.70
2023-01-03T12:39:29.219Z,0.90
2023-01-03T12:40:56.521Z,0.90
2023-01-03T12:42:07.282Z,0.85
2023-01-03T12:43:08.610Z,0.90
2023-01-03T12:44:26.578Z,0.80
2023-01-03T12:45:48.405Z,1.00
2023-01-03T12:46:56.246Z,0.80
2023-01-03T12:48:25.420Z,0.82
2023-01-03T12:49:44.062Z,0.80
2023-01-03T12:50:50.568Z,0.90
2023-01-03T12:51:52.024Z,0.85
2023-01-03T12:53:13.707Z,0.95
2023-01-03T12:54:26.012Z,0.95
2023-01-03T12:55:46.700Z,1.10
2023-01-03T12:57:18.906Z,1.33
2023-01-03T12:58:59.391Z,1.08
2023-01-03T13:00:25.761Z,0.90
2023-01-03T13:01:53.529Z,0.80
2023-01-03T13:03:06.754Z,0.77
2023-01-03T13:04:23.646Z,0.80
2023-01-03T13:05:50.414Z,0.90
2023-01-03T13:07:06.589Z,1.10
2023-01-03T13:08:44.805Z,0.93
2023-01-03T13:10:00.828Z,1.00
2023-01-03T13:11:07.332Z,0.93
2023-01-03T13:12:21.852Z,1.02
2023-01-03T13:13:23.403Z,3.97
2023-01-03T13:14:27.945Z,2.25
2023-01-03T13:15:36.614Z,2.47
2023-01-03T13:16:45.918Z,3.35
2023-01-03T13:17:48.813Z,1.52
2023-01-03T13:18:50.271Z,1.67
2023-01-03T13:19:52.941Z,1.70
2023-01-03T13:20:54.980Z,2.65
2023-01-03T13:22:05.756Z,6.30
2023-01-03T13:23:26.110Z,3.58
2023-01-03T13:24:39.764Z,1.25
2023-01-03T13:25:42.380Z,1.95
2023-01-03T13:27:19.173Z,1.25
2023-01-03T13:28:20.532Z,1.40
2023-01-03T13:29:33.970Z,1.13
2023-01-03T13:30:38.258Z,0.90
2023-01-03T13:31:40.777Z,0.90
2023-01-03T13:32:53.669Z,0.95
2023-01-03T13:34:11.074Z,0.90
2023-01-03T13:35:30.124Z,0.73
2023-01-03T13:37:06.796Z,0.85
2023-01-03T13:38:32.229Z,0.90
2023-01-03T13:39:50.594Z,0.68
2023-01-03T13:42:20.927Z,0.90
2023-01-03T13:43:28.901Z,0.90
2023-01-03T13:44:30.852Z,0.80
2023-01-03T13:45:32.268Z,1.50
2023-01-03T13:46:34.440Z,1.10
2023-01-03T13:47:41.261Z,0.80
2023-01-03T13:48:53.927Z,0.70
2023-01-03T13:49:55.454Z,0.90
2023-01-03T13:51:14.206Z,1.75
2023-01-03T13:52:55.348Z,0.80
2023-01-03T13:54:11.905Z,0.80
2023-01-03T13:55:38.400Z,0.85
2023-01-03T13:56:42.903Z,0.95
2023-01-03T13:57:53.260Z,1.15
2023-01-03T13:59:01.646Z,0.80
2023-01-03T14:00:13.243Z,0.93
2023-01-03T14:01:29.745Z,1.00
2023-01-03T14:02:50.979Z,0.80
2023-01-03T14:04:01.719Z,0.90
2023-01-03T14:05:30.851Z,0.80
2023-01-03T14:06:50.285Z,1.30
2023-01-03T14:08:06.497Z,0.98
2023-01-03T14:09:53.399Z,0.90
2023-01-03T14:11:03.717Z,0.82
2023-01-03T14:12:21.228Z,0.93
2023-01-03T14:13:48.696Z,0.80
2023-01-03T14:14:58.152Z,0.82
2023-01-03T14:16:29.268Z,0.80
2023-01-03T14:17:33.049Z,1.05
2023-01-03T14:18:36.312Z,0.80
2023-01-03T14:19:43.287Z,1.25
2023-01-03T14:20:49.169Z,1.27
2023-01-03T14:22:29.864Z,0.70
2023-01-03T14:24:02.399Z,1.10
2023-01-03T14:24:57.463Z,0.98
2023-01-03T14:26:14.648Z,0.75
2023-01-03T14:27:17.846Z,1.00
2023-01-03T14:28:22.950Z,1.00
2023-01-03T14:29:26.212Z,0.73
2023-01-03T14:30:33.491Z,1.00
2023-01-03T14:31:36.292Z,0.90
2023-01-03T14:32:39.707Z,0.90
2023-01-03T14:33:51.129Z,1.10
2023-01-03T14:34:53.126Z,1.20
2023-01-03T14:36:06.852Z,1.23
2023-01-03T14:37:14.789Z,1.42
2023-01-03T14:38:23.390Z,1.23
2023-01-03T14:40:32.588Z,1.30
2023-01-03T14:41:39.016Z,1.20
2023-01-03T14:42:46.464Z,1.20
2023-01-03T15:11:57.187Z,1.02
2023-01-03T15:13:04.570Z,0.77
2023-01-03T15:14:07.012Z,0.82
2023-01-03T15:15:19.427Z,1.20
2023-01-03T15:16:36.090Z,1.00
2023-01-03T15:17:37.730Z,1.00
2023-01-03T15:18:40.405Z,0.85
2023-01-03T15:19:49.712Z,0.95
2023-01-03T15:20:53.963Z,0.80
2023-01-03T15:22:13.158Z,1.13
2023-01-03T15:23:42.977Z,1.05
2023-01-03T15:24:46.835Z,1.40
2023-01-03T15:25:48.476Z,1.10
2023-01-03T15:26:53.897Z,1.20
2023-01-03T15:27:55.254Z,0.95
2023-01-03T15:29:05.655Z,0.90
